Time;durP1;ratioP1;P1;durP2;ratioP2;P2;SDS_P1;SDS_P2;PMS_P1;PMS_P2;Temp;Humidity;BMP_temperature;BMP_pressure;BME280_temperature;BME280_humidity;BME280_pressure;Samples;Min_cycle;Max_cycle;Signal;HPM_P1;HPM_P2
2023/09/25 00:00:12;;;;;;;1.77;1.33;;;19.90;85.00;;;;;;5012080;28;20134;-31
2023/09/25 00:02:38;;;;;;;1.25;1.10;;;19.90;83.20;;;;;;5012115;28;20050;-31
2023/09/25 00:05:06;;;;;;;1.60;1.20;;;19.80;68.20;;;;;;5011554;28;20555;-30
2023/09/25 00:07:33;;;;;;;1.90;1.20;;;;;;;;;;5011635;28;20128;-31
2023/09/25 00:10:00;;;;;;;2.13;1.20;;;;;;;;;;5011577;28;20068;-31
2023/09/25 00:12:27;;;;;;;1.92;1.40;;;19.40;84.50;;;;;;5011715;28;20088;-31
2023/09/25 00:14:55;;;;;;;1.70;1.30;;;19.70;68.20;;;;;;5011709;28;20054;-29
2023/09/25 00:17:22;;;;;;;1.50;1.20;;;;;;;;;;5011664;28;20133;-30
2023/09/25 00:19:48;;;;;;;1.55;1.27;;;20.00;85.20;;;;;;5011883;28;20125;-31
2023/09/25 00:22:15;;;;;;;1.40;1.10;;;19.90;84.90;;;;;;5011702;28;20133;-31
2023/09/25 00:24:42;;;;;;;2.35;1.40;;;;;;;;;;5011477;28;20191;-30
2023/09/25 00:27:10;;;;;;;1.95;1.20;;;;;;;;;;5011136;28;20134;-31
2023/09/25 00:29:37;;;;;;;1.60;1.40;;;20.00;85.20;;;;;;5011636;28;20050;-30
2023/09/25 00:32:05;;;;;;;1.55;1.20;;;19.00;67.90;;;;;;5011354;28;20498;-31
2023/09/25 00:34:32;;;;;;;1.50;1.10;;;19.70;68.20;;;;;;5011431;28;20129;-31
2023/09/25 00:36:59;;;;;;;1.33;1.20;;;20.00;85.00;;;;;;5019354;28;20045;-31
2023/09/25 00:39:26;;;;;;;1.38;1.10;;;18.60;84.50;;;;;;5013238;28;20402;-31
2023/09/25 00:41:52;;;;;;;1.70;1.30;;;18.80;75.50;;;;;;5015124;28;20137;-31
2023/09/25 00:44:19;;;;;;;1.52;1.10;;;19.00;84.60;;;;;;5014033;28;20128;-31
2023/09/25 00:46:46;;;;;;;2.03;1.27;;;20.10;85.00;;;;;;5014945;28;20145;-31
2023/09/25 00:49:14;;;;;;;2.20;1.38;;;20.70;69.90;;;;;;5015024;28;20128;-31
2023/09/25 00:51:41;;;;;;;1.92;1.20;;;18.50;72.40;;;;;;5015163;28;20050;-31
2023/09/25 00:54:08;;;;;;;3.63;1.23;;;19.30;68.00;;;;;;5014557;28;20137;-31
2023/09/25 00:56:35;;;;;;;2.92;1.33;;;;;;;;;;5014927;28;20124;-31
2023/09/25 00:59:01;;;;;;;1.35;1.17;;;19.40;84.60;;;;;;5015047;28;20073;-31
2023/09/25 01:01:28;;;;;;;2.25;1.35;;;20.40;85.20;;;;;;5014854;28;20133;-31
2023/09/25 01:03:55;;;;;;;1.55;1.30;;;;;;;;;;5014725;28;20081;-30
2023/09/25 01:06:23;;;;;;;1.67;1.27;;;20.00;85.10;;;;;;5014677;28;20128;-30
2023/09/25 01:08:50;;;;;;;1.38;1.20;;;20.50;85.40;;;;;;5014714;28;20133;-31
2023/09/25 01:11:17;;;;;;;1.88;1.23;;;;;;;;;;5014522;28;20452;-30
2023/09/25 01:13:44;;;;;;;2.50;1.10;;;19.40;84.70;;;;;;5014776;28;20478;-31
2023/09/25 01:16:11;;;;;;;1.50;1.17;;;18.80;84.40;;;;;;5014291;28;20132;-31
2023/09/25 01:18:38;;;;;;;2.45;1.20;;;;;;;;;;5014402;28;20471;-29
2023/09/25 01:21:04;;;;;;;1.60;1.20;;;19.40;84.80;;;;;;5014526;28;20049;-28
2023/09/25 01:23:33;;;;;;;2.63;1.30;;;20.10;85.10;;;;;;5014494;28;20140;-29
2023/09/25 01:26:00;;;;;;;1.70;1.33;;;;;;;;;;5014060;28;20510;-30
2023/09/25 01:28:27;;;;;;;1.45;1.20;;;;;;;;;;5014761;28;20448;-28
2023/09/25 01:30:54;;;;;;;2.13;1.40;;;;;;;;;;5014464;28;20129;-30
2023/09/25 01:33:20;;;;;;;1.25;1.10;;;18.50;84.30;;;;;;5014109;28;20054;-29
2023/09/25 01:35:47;;;;;;;1.60;1.20;;;19.60;85.00;;;;;;5022005;28;20077;-28
2023/09/25 01:38:14;;;;;;;1.80;1.40;;;19.20;70.40;;;;;;5007839;28;20080;-29
2023/09/25 01:40:42;;;;;;;1.77;1.30;;;19.10;84.60;;;;;;5014178;28;20132;-29
2023/09/25 01:43:09;;;;;;;1.65;1.25;;;19.60;75.70;;;;;;5014175;28;20132;-29
2023/09/25 01:45:35;;;;;;;1.55;1.30;;;19.80;85.40;;;;;;5014130;28;20125;-29
2023/09/25 01:48:02;;;;;;;2.22;1.10;;;;;;;;;;5013710;28;20132;-29
2023/09/25 01:50:29;;;;;;;2.50;1.27;;;19.80;85.40;;;;;;5013403;28;20128;-29
2023/09/25 01:52:57;;;;;;;1.58;1.20;;;;;;;;;;5013942;28;20054;-28
2023/09/25 01:55:24;;;;;;;1.50;1.20;;;19.50;85.10;;;;;;5013588;28;20129;-28
2023/09/25 01:57:52;;;;;;;1.17;1.08;;;19.50;68.30;;;;;;5013744;28;20070;-29
2023/09/25 02:00:19;;;;;;;1.95;1.30;;;;;;;;;;5013718;28;20140;-30
2023/09/25 02:02:46;;;;;;;1.65;1.10;;;19.30;85.00;;;;;;5013706;28;20056;-28
2023/09/25 02:05:13;;;;;;;1.63;1.30;;;;;;;;;;5012992;28;20056;-30
2023/09/25 02:07:40;;;;;;;2.28;1.10;;;19.10;84.80;;;;;;5013766;28;20049;-28
2023/09/25 02:10:08;;;;;;;1.52;1.10;;;19.50;73.60;;;;;;5013447;28;20056;-29
2023/09/25 02:12:34;;;;;;;1.63;1.40;;;18.50;84.30;;;;;;5013323;28;20176;-29
2023/09/25 02:15:04;;;;;;;1.30;1.20;;;19.50;68.30;;;;;;5013407;28;20045;-29
2023/09/25 02:17:30;;;;;;;1.40;1.25;;;19.10;85.20;;;;;;4993641;28;20054;-28
2023/09/25 02:20:08;;;;;;;1.50;1.40;;;;;;;;;;4994138;28;20146;-29
2023/09/25 02:22:35;;;;;;;1.40;1.30;;;;;;;;;;4993888;28;20056;-29
2023/09/25 02:25:02;;;;;;;1.90;1.20;;;19.60;81.80;;;;;;4993684;28;20129;-29
2023/09/25 02:27:28;;;;;;;2.03;1.30;;;20.40;85.80;;;;;;4993622;28;20046;-28
2023/09/25 02:29:55;;;;;;;1.38;1.25;;;;;;;;;;5003928;28;20161;-29
2023/09/25 02:32:24;;;;;;;1.80;1.20;;;19.40;68.30;;;;;;5013029;28;20133;-28
2023/09/25 02:34:50;;;;;;;2.58;1.42;;;19.50;85.40;;;;;;5012998;28;20129;-28
2023/09/25 02:37:18;;;;;;;1.30;1.20;;;19.50;85.10;;;;;;5012683;28;20125;-28
2023/09/25 02:39:45;;;;;;;1.70;1.23;;;;;;;;;;5012919;28;20092;-28
2023/09/25 02:42:12;;;;;;;1.73;1.40;;;;;;;;;;5012926;28;20085;-30
2023/09/25 02:44:39;;;;;;;1.20;1.00;;;19.50;85.30;;;;;;5012646;28;20133;-28
2023/09/25 02:47:06;;;;;;;1.35;1.17;;;18.40;84.90;;;;;;5012220;28;20045;-29
2023/09/25 02:49:34;;;;;;;1.98;1.30;;;19.50;73.50;;;;;;5012641;28;20141;-29
2023/09/25 02:52:00;;;;;;;1.58;1.15;;;19.80;74.10;;;;;;5012967;28;20125;-29
2023/09/25 02:54:27;;;;;;;1.50;1.30;;;19.20;84.70;;;;;;5012631;28;20133;-28
2023/09/25 02:56:54;;;;;;;1.52;1.30;;;19.50;85.10;;;;;;5012573;28;20124;-28
2023/09/25 02:59:21;;;;;;;2.30;1.42;;;;;;;;;;5012651;28;20141;-29
2023/09/25 03:01:47;;;;;;;1.50;1.20;;;19.30;85.00;;;;;;5011853;28;20144;-29
2023/09/25 03:04:15;;;;;;;2.25;1.30;;;;;;;;;;5011845;28;20084;-28
2023/09/25 03:06:43;;;;;;;2.30;1.60;;;19.00;84.80;;;;;;5012975;28;20133;-29
2023/09/25 03:09:09;;;;;;;1.50;1.20;;;20.20;85.40;;;;;;5012422;28;20152;-29
2023/09/25 03:11:36;;;;;;;1.33;1.15;;;19.30;81.70;;;;;;5012390;28;20132;-28
2023/09/25 03:14:03;;;;;;;2.63;1.33;;;;;;;;;;5012479;28;20452;-30
2023/09/25 03:16:30;;;;;;;1.65;1.30;;;18.20;84.50;;;;;;5012443;28;20050;-29
2023/09/25 03:18:57;;;;;;;1.75;1.45;;;;;;;;;;5012148;28;20471;-29
2023/09/25 03:21:24;;;;;;;1.63;1.33;;;19.30;85.30;;;;;;5012441;28;20129;-29
2023/09/25 03:23:52;;;;;;;3.15;1.20;;;19.30;68.40;;;;;;5012022;28;20133;-29
2023/09/25 03:26:19;;;;;;;1.50;1.40;;;19.20;84.90;;;;;;5012141;28;20133;-28
2023/09/25 03:28:46;;;;;;;1.73;1.35;;;18.10;84.80;;;;;;5011959;28;20136;-28
2023/09/25 03:31:13;;;;;;;1.52;1.38;;;19.60;85.60;;;;;;5012524;28;20137;-28
2023/09/25 03:33:40;;;;;;;1.80;1.45;;;19.50;77.80;;;;;;5011717;28;20096;-28
2023/09/25 03:36:07;;;;;;;3.47;1.30;;;19.50;85.60;;;;;;5011467;28;20129;-28
2023/09/25 03:38:34;;;;;;;2.88;1.50;;;20.20;85.60;;;;;;5011814;28;20403;-28
2023/09/25 03:41:02;;;;;;;1.85;1.30;;;20.20;85.90;;;;;;5012019;28;20052;-29
2023/09/25 03:43:29;;;;;;;1.35;1.20;;;19.20;85.10;;;;;;5012123;28;20136;-28
2023/09/25 03:45:56;;;;;;;1.50;1.23;;;18.90;71.30;;;;;;5011042;28;20141;-30
2023/09/25 03:48:23;;;;;;;2.03;1.27;;;19.60;85.50;;;;;;5012204;28;20092;-28
2023/09/25 03:50:49;;;;;;;1.83;1.42;;;18.90;85.30;;;;;;5011559;28;20169;-27
2023/09/25 03:53:16;;;;;;;1.70;1.20;;;;;;;;;;5011979;28;20454;-28
2023/09/25 03:55:44;;;;;;;1.85;1.33;;;19.00;85.10;;;;;;5011951;28;20050;-27
2023/09/25 03:58:12;;;;;;;1.30;1.20;;;18.30;75.30;;;;;;5011953;28;20137;-28
2023/09/25 04:00:39;;;;;;;2.08;1.30;;;19.40;77.30;;;;;;5012055;28;20132;-28
2023/09/25 04:03:05;;;;;;;1.60;1.30;;;19.30;85.40;;;;;;5011772;28;20612;-27
2023/09/25 04:05:33;;;;;;;1.50;1.27;;;19.20;68.30;;;;;;5011651;28;20141;-29
2023/09/25 04:08:00;;;;;;;1.77;1.20;;;18.30;85.00;;;;;;5010774;28;20038;-27
2023/09/25 04:10:27;;;;;;;1.20;1.10;;;;;;;;;;5012006;28;20125;-29
2023/09/25 04:12:55;;;;;;;1.63;1.23;;;18.60;84.70;;;;;;5012503;28;20478;-28
2023/09/25 04:15:23;;;;;;;1.67;1.30;;;19.20;68.30;;;;;;5015611;28;20541;-28
2023/09/25 04:17:50;;;;;;;1.42;1.30;;;19.00;84.00;;;;;;5015510;28;20050;-27
2023/09/25 04:20:18;;;;;;;1.60;1.20;;;19.00;68.30;;;;;;5015689;28;20502;-28
2023/09/25 04:22:45;;;;;;;2.10;1.40;;;20.00;85.50;;;;;;5015387;28;20483;-27
2023/09/25 04:25:18;;;;;;;1.80;1.20;;;18.70;85.20;;;;;;5015266;28;20469;-28
2023/09/25 04:27:46;;;;;;;2.05;1.40;;;19.20;68.40;;;;;;5015509;28;20053;-28
2023/09/25 04:30:14;;;;;;;1.90;1.40;;;19.20;68.40;;;;;;5015758;28;20057;-29
2023/09/25 04:32:43;;;;;;;1.75;1.27;;;19.20;68.40;;;;;;5015330;28;20503;-27
2023/09/25 04:35:12;;;;;;;2.15;1.40;;;;;;;;;;5018500;28;20053;-28
2023/09/25 04:37:39;;;;;;;1.58;1.20;;;;;;;;;;5019631;28;20042;-29
2023/09/25 04:40:14;;;;;;;1.58;1.20;;;19.30;85.10;;;;;;5014485;28;20137;-27
2023/09/25 04:42:41;;;;;;;1.48;1.13;;;18.40;80.60;;;;;;5015439;28;20060;-27
2023/09/25 04:45:12;;;;;;;1.90;1.45;;;19.20;68.40;;;;;;5015112;28;20061;-27
2023/09/25 04:47:39;;;;;;;1.55;1.35;;;19.00;83.30;;;;;;5015155;28;20078;-27
2023/09/25 04:50:09;;;;;;;1.30;1.20;;;18.80;74.60;;;;;;5014864;28;20038;-27
2023/09/25 04:52:36;;;;;;;1.42;1.33;;;19.40;83.00;;;;;;5015258;28;20046;-27
2023/09/25 04:55:05;;;;;;;1.70;1.40;;;20.20;85.90;;;;;;5014693;28;20081;-27
2023/09/25 04:57:33;;;;;;;1.65;1.30;;;19.40;79.30;;;;;;5011915;28;20046;-27
2023/09/25 05:00:00;;;;;;;1.33;1.20;;;17.80;84.60;;;;;;5014889;28;20410;-27
2023/09/25 05:02:26;;;;;;;1.83;1.42;;;19.00;80.40;;;;;;5014804;28;20054;-27
2023/09/25 05:04:53;;;;;;;1.85;1.35;;;19.20;85.60;;;;;;5014463;28;20125;-27
2023/09/25 05:07:21;;;;;;;1.50;1.20;;;19.10;68.40;;;;;;5014339;28;20117;-27
2023/09/25 05:09:48;;;;;;;1.30;1.20;;;19.30;71.90;;;;;;5014969;28;20128;-27
2023/09/25 05:12:15;;;;;;;1.70;1.30;;;19.10;75.50;;;;;;5014448;28;20136;-27
2023/09/25 05:14:42;;;;;;;1.55;1.27;;;18.80;85.40;;;;;;5014666;28;20419;-27
2023/09/25 05:17:09;;;;;;;1.60;1.40;;;;;;;;;;5014637;28;20138;-29
2023/09/25 05:19:35;;;;;;;2.17;1.50;;;19.00;85.60;;;;;;5014484;28;20133;-30
2023/09/25 05:22:02;;;;;;;1.60;1.30;;;19.00;85.50;;;;;;5013696;28;20637;-30
2023/09/25 05:24:31;;;;;;;1.63;1.33;;;18.60;75.00;;;;;;5013534;28;20132;-29
2023/09/25 05:26:58;;;;;;;1.52;1.25;;;18.80;85.30;;;;;;5014373;28;20046;-29
2023/09/25 05:29:24;;;;;;;1.50;1.40;;;20.00;85.90;;;;;;5014396;28;20042;-29
2023/09/25 05:31:51;;;;;;;1.98;1.40;;;;;;;;;;5014357;28;20445;-30
2023/09/25 05:34:18;;;;;;;1.70;1.20;;;19.00;85.00;;;;;;5014092;28;20129;-30
2023/09/25 05:36:46;;;;;;;1.40;1.30;;;20.20;68.90;;;;;;5015552;28;20041;-30
2023/09/25 05:39:13;;;;;;;2.88;1.30;;;20.00;80.70;;;;;;5013532;28;20088;-30
2023/09/25 05:41:41;;;;;;;1.90;1.25;;;19.40;79.70;;;;;;5014116;28;20045;-29
2023/09/25 05:44:09;;;;;;;1.55;1.33;;;19.00;77.60;;;;;;5014163;28;20144;-29
2023/09/25 05:46:36;;;;;;;1.60;1.40;;;19.50;85.80;;;;;;5010099;28;20046;-29
2023/09/25 05:49:06;;;;;;;2.08;1.40;;;19.10;85.50;;;;;;4995407;28;20054;-30
2023/09/25 05:51:34;;;;;;;1.75;1.20;;;;;;;;;;4994758;28;20113;-29
2023/09/25 05:54:01;;;;;;;1.58;1.38;;;18.60;85.10;;;;;;5004809;28;20049;-30
2023/09/25 05:56:28;;;;;;;1.42;1.30;;;18.70;85.30;;;;;;5013927;28;20141;-30
2023/09/25 05:58:56;;;;;;;1.58;1.35;;;18.60;85.30;;;;;;5014278;28;20104;-29
2023/09/25 06:01:23;;;;;;;1.20;1.10;;;19.50;85.80;;;;;;5013880;28;20128;-30
2023/09/25 06:03:50;;;;;;;1.40;1.10;;;;;;;;;;5013625;28;20149;-29
2023/09/25 06:06:17;;;;;;;1.55;1.40;;;19.40;85.50;;;;;;5011885;28;20054;-30
2023/09/25 06:08:44;;;;;;;1.58;1.25;;;18.90;85.50;;;;;;5013454;28;20816;-30
2023/09/25 06:11:11;;;;;;;1.20;1.10;;;;;;;;;;5012541;28;20144;-29
2023/09/25 06:13:37;;;;;;;1.55;1.20;;;19.00;85.30;;;;;;5012094;28;20565;-30
2023/09/25 06:16:06;;;;;;;1.73;1.27;;;19.20;68.40;;;;;;5013724;28;20049;-29
2023/09/25 06:18:33;;;;;;;1.38;1.27;;;19.50;77.10;;;;;;5013281;28;20566;-29
2023/09/25 06:20:59;;;;;;;2.80;1.20;;;20.10;85.40;;;;;;5013452;28;20062;-30
2023/09/25 06:23:26;;;;;;;1.55;1.20;;;19.40;85.00;;;;;;5013519;28;20137;-29
2023/09/25 06:25:53;;;;;;;1.55;1.20;;;19.30;85.10;;;;;;5012865;28;20125;-29
2023/09/25 06:28:23;;;;;;;1.67;1.13;;;20.50;85.50;;;;;;5013291;28;20590;-29
2023/09/25 06:30:51;;;;;;;2.47;1.10;;;;;;;;;;5013451;28;20077;-29
2023/09/25 06:33:19;;;;;;;1.35;1.10;;;20.20;84.60;;;;;;5013033;28;20049;-29
2023/09/25 06:35:45;;;;;;;1.50;1.00;;;20.00;84.00;;;;;;5014924;28;20137;-29
2023/09/25 06:38:12;;;;;;;1.55;1.20;;;20.50;77.00;;;;;;5010854;28;20121;-29
2023/09/25 06:40:44;;;;;;;1.70;1.23;;;20.30;67.30;;;;;;5012789;28;20137;-28
2023/09/25 06:43:11;;;;;;;1.85;1.25;;;20.30;83.50;;;;;;5013175;28;20077;-29
2023/09/25 06:45:37;;;;;;;1.20;1.10;;;19.60;80.60;;;;;;5013043;28;20107;-29
2023/09/25 06:48:05;;;;;;;1.40;1.10;;;20.20;79.10;;;;;;5013151;28;20558;-29
2023/09/25 06:50:33;;;;;;;1.73;1.30;;;20.50;78.90;;;;;;5012311;28;20550;-29
2023/09/25 06:53:00;;;;;;;1.30;1.20;;;20.70;81.40;;;;;;4993265;28;20129;-29
2023/09/25 06:55:26;;;;;;;1.45;1.00;;;20.40;83.00;;;;;;5004149;28;20125;-29
2023/09/25 06:57:53;;;;;;;0.98;0.93;;;;;;;;;;4995060;28;20121;-29
2023/09/25 07:00:21;;;;;;;1.65;1.20;;;;;;;;;;4994929;28;20133;-29
2023/09/25 07:02:48;;;;;;;1.25;0.98;;;;;;;;;;5011041;28;20137;-27
2023/09/25 07:05:15;;;;;;;1.08;0.98;;;21.10;82.50;;;;;;5013669;28;20121;-28
2023/09/25 07:07:43;;;;;;;1.70;1.10;;;21.50;82.60;;;;;;5012759;28;20132;-30
2023/09/25 07:10:10;;;;;;;1.20;1.05;;;21.30;66.10;;;;;;5011167;28;20133;-30
2023/09/25 07:12:37;;;;;;;1.27;1.00;;;21.40;82.10;;;;;;5012241;28;20056;-29
2023/09/25 07:15:05;;;;;;;1.52;1.00;;;21.10;75.00;;;;;;5012071;28;20046;-29
2023/09/25 07:17:32;;;;;;;1.20;1.10;;;;;;;;;;5011571;28;20503;-29
2023/09/25 07:19:59;;;;;;;1.80;1.30;;;21.60;81.80;;;;;;5012198;28;20052;-30
2023/09/25 07:22:27;;;;;;;1.05;0.93;;;;;;;;;;5011951;28;20049;-29
2023/09/25 07:24:56;;;;;;;1.45;1.10;;;21.60;65.60;;;;;;5011621;28;20081;-29
2023/09/25 07:27:23;;;;;;;4.47;1.00;;;;;;;;;;5011735;28;20041;-29
2023/09/25 07:29:50;;;;;;;1.00;0.90;;;;;;;;;;5011081;28;20137;-29
2023/09/25 07:32:17;;;;;;;2.25;1.02;;;;;;;;;;5010276;28;20133;-28
2023/09/25 07:34:45;;;;;;;2.10;1.00;;;22.10;81.60;;;;;;5011379;28;20136;-29
2023/09/25 07:37:12;;;;;;;2.70;1.00;;;22.10;81.30;;;;;;5013923;28;20086;-29
2023/09/25 07:39:40;;;;;;;2.10;1.20;;;22.20;74.10;;;;;;5012282;28;20132;-29
2023/09/25 07:42:08;;;;;;;1.42;1.00;;;22.00;65.30;;;;;;5012160;28;20137;-28
2023/09/25 07:44:35;;;;;;;1.05;0.90;;;;;;;;;;5006340;28;20129;-28
2023/09/25 07:47:06;;;;;;;0.88;0.80;;;22.20;80.50;;;;;;5005476;28;20081;-29
2023/09/25 07:49:38;;;;;;;1.42;1.02;;;22.00;65.00;;;;;;5000082;28;20045;-28
2023/09/25 07:52:15;;;;;;;1.02;0.90;;;21.80;80.30;;;;;;5011351;28;20049;-29
2023/09/25 07:54:43;;;;;;;1.30;1.00;;;22.00;80.80;;;;;;5011889;28;20058;-29
2023/09/25 07:57:13;;;;;;;0.88;0.88;;;21.90;80.40;;;;;;5011816;28;20060;-29
2023/09/25 07:59:40;;;;;;;1.67;1.10;;;21.90;80.30;;;;;;5011965;28;20141;-29
2023/09/25 08:02:07;;;;;;;1.10;1.00;;;21.80;80.60;;;;;;5011352;28;20132;-29
2023/09/25 08:04:35;;;;;;;1.17;0.93;;;;;;;;;;5011380;28;20108;-29
2023/09/25 08:07:02;;;;;;;1.38;1.10;;;21.70;68.70;;;;;;5012157;28;20418;-28
2023/09/25 08:09:29;;;;;;;1.65;1.10;;;21.70;80.10;;;;;;5011977;28;20050;-28
2023/09/25 08:11:56;;;;;;;1.20;1.10;;;;;;;;;;5011012;28;20517;-28
2023/09/25 08:14:25;;;;;;;1.30;1.00;;;22.90;80.80;;;;;;5012002;28;20054;-28
2023/09/25 08:16:52;;;;;;;1.40;1.05;;;;;;;;;;5011826;28;20050;-28
2023/09/25 08:19:22;;;;;;;1.42;1.20;;;21.60;80.30;;;;;;5011880;28;20487;-28
2023/09/25 08:21:49;;;;;;;1.48;1.20;;;21.90;66.40;;;;;;5009345;28;20136;-27
2023/09/25 08:24:16;;;;;;;1.30;1.13;;;21.90;64.80;;;;;;5010097;28;20403;-28
2023/09/25 08:26:46;;;;;;;1.58;1.10;;;20.90;79.60;;;;;;5011610;28;20046;-28
2023/09/25 08:29:13;;;;;;;1.77;1.20;;;22.50;74.50;;;;;;5011835;28;20157;-28
2023/09/25 08:31:42;;;;;;;1.13;1.02;;;21.70;80.20;;;;;;5012001;28;20089;-27
2023/09/25 08:34:09;;;;;;;2.13;1.15;;;21.50;80.40;;;;;;5011409;28;20046;-28
2023/09/25 08:36:36;;;;;;;1.40;1.10;;;21.80;81.00;;;;;;5018748;28;20129;-28
2023/09/25 08:39:03;;;;;;;2.08;1.20;;;;;;;;;;5011826;28;20053;-29
2023/09/25 08:41:29;;;;;;;3.88;1.20;;;21.90;80.60;;;;;;5002369;28;20130;-28
2023/09/25 08:43:56;;;;;;;1.80;1.20;;;22.80;80.70;;;;;;5000678;28;20130;-28
2023/09/25 08:46:23;;;;;;;1.10;1.00;;;22.90;65.00;;;;;;4993239;28;20543;-28
2023/09/25 08:48:56;;;;;;;1.45;1.20;;;21.50;80.90;;;;;;4991931;28;20137;-29
2023/09/25 08:51:23;;;;;;;2.28;1.20;;;;;;;;;;5006438;28;20077;-28
2023/09/25 08:53:50;;;;;;;2.08;1.10;;;22.20;81.00;;;;;;5011749;28;20136;-29
2023/09/25 08:56:17;;;;;;;1.35;1.05;;;21.40;80.20;;;;;;5011440;28;20129;-29
2023/09/25 08:58:44;;;;;;;1.40;1.20;;;;;;;;;;5010570;28;20491;-28
2023/09/25 09:01:10;;;;;;;1.35;1.00;;;;;;;;;;4998988;28;20470;-29
2023/09/25 09:03:37;;;;;;;0.95;0.90;;;21.40;80.40;;;;;;4997395;28;20042;-29
2023/09/25 09:06:05;;;;;;;1.48;1.23;;;21.70;66.00;;;;;;5015526;28;20054;-29
2023/09/25 09:08:32;;;;;;;3.63;1.17;;;21.00;72.80;;;;;;5025830;28;20045;-29
2023/09/25 09:10:59;;;;;;;1.73;1.27;;;21.40;80.70;;;;;;5030657;28;20132;-29
2023/09/25 09:13:25;;;;;;;2.75;1.33;;;21.50;80.90;;;;;;5019530;28;20054;-29
2023/09/25 09:15:52;;;;;;;1.95;1.10;;;;;;;;;;5012450;28;20132;-29
2023/09/25 09:18:20;;;;;;;2.58;1.20;;;22.30;81.20;;;;;;5014427;28;20133;-29
2023/09/25 09:20:47;;;;;;;2.58;1.10;;;20.90;80.80;;;;;;5014693;28;20133;-29
2023/09/25 09:23:15;;;;;;;2.58;1.10;;;21.40;64.90;;;;;;5014693;28;20471;-29
2023/09/25 09:25:45;;;;;;;1.60;1.20;;;21.20;64.80;;;;;;5014705;28;20050;-27
2023/09/25 09:28:13;;;;;;;1.63;1.10;;;;;;;;;;5013999;28;20050;-28
2023/09/25 09:30:40;;;;;;;2.55;1.00;;;21.10;80.70;;;;;;5014511;28;20046;-27
2023/09/25 09:33:08;;;;;;;1.38;1.27;;;21.50;67.40;;;;;;5008453;28;20129;-28
2023/09/25 09:35:35;;;;;;;1.30;1.20;;;22.20;73.40;;;;;;5019874;28;20495;-29
2023/09/25 09:38:02;;;;;;;1.73;1.20;;;20.70;80.60;;;;;;5013692;28;20558;-29
2023/09/25 09:40:30;;;;;;;1.23;1.13;;;20.30;69.90;;;;;;5014037;28;20050;-29
2023/09/25 09:42:57;;;;;;;2.60;1.40;;;22.00;81.40;;;;;;5013084;28;20058;-29
2023/09/25 09:45:24;;;;;;;2.17;1.00;;;21.90;74.10;;;;;;5013274;28;20065;-30
2023/09/25 09:47:51;;;;;;;1.75;1.10;;;21.20;65.20;;;;;;5011136;28;20132;-29
2023/09/25 09:50:19;;;;;;;1.80;1.10;;;21.60;81.50;;;;;;5013807;28;20121;-30
2023/09/25 09:52:46;;;;;;;1.35;1.08;;;;;;;;;;5012675;28;20132;-29
2023/09/25 09:55:14;;;;;;;1.33;1.10;;;21.10;65.30;;;;;;5011417;28;20056;-28
2023/09/25 09:57:42;;;;;;;1.38;1.00;;;21.00;81.30;;;;;;5012978;28;20104;-30
2023/09/25 10:00:09;;;;;;;1.30;1.00;;;20.80;81.00;;;;;;5012748;28;20149;-29
2023/09/25 10:02:36;;;;;;;1.63;1.17;;;21.50;81.70;;;;;;5001263;28;20082;-29
2023/09/25 10:05:03;;;;;;;1.40;1.20;;;;;;;;;;5013736;28;20084;-28
2023/09/25 10:07:30;;;;;;;1.52;1.10;;;20.80;81.30;;;;;;5013732;28;20361;-29
2023/09/25 10:09:58;;;;;;;3.72;1.40;;;20.20;76.60;;;;;;5012192;28;20779;-29
2023/09/25 10:12:47;;;;;;;1.20;1.10;;;21.10;79.30;;;;;;5011519;28;20108;-29
2023/09/25 10:15:18;;;;;;;1.27;1.10;;;21.70;81.30;;;;;;5011697;28;20085;-29
2023/09/25 10:17:48;;;;;;;1.60;1.20;;;21.00;65.30;;;;;;5011385;28;20128;-29
2023/09/25 10:20:34;;;;;;;2.08;1.20;;;20.30;79.80;;;;;;5011504;28;20077;-28
2023/09/25 10:23:04;;;;;;;1.38;1.20;;;22.00;65.80;;;;;;5011488;28;20058;-28
2023/09/25 10:25:32;;;;;;;1.85;1.25;;;20.50;81.80;;;;;;5011858;28;20068;-27
2023/09/25 10:28:00;;;;;;;1.65;1.17;;;21.40;81.90;;;;;;5012997;28;20144;-28
2023/09/25 10:30:27;;;;;;;1.55;1.15;;;21.40;81.50;;;;;;5013320;28;20558;-28
2023/09/25 10:32:54;;;;;;;1.30;1.10;;;21.20;66.80;;;;;;5012851;28;20140;-27
2023/09/25 10:35:40;;;;;;;3.35;1.20;;;20.40;81.30;;;;;;5017457;28;20045;-27
2023/09/25 10:38:11;;;;;;;2.35;1.10;;;21.30;82.00;;;;;;5013734;28;20050;-28
2023/09/25 10:40:38;;;;;;;1.27;1.08;;;21.10;81.50;;;;;;5009579;28;20053;-28
2023/09/25 10:43:06;;;;;;;1.98;1.50;;;20.90;65.60;;;;;;5003858;28;20140;-28
2023/09/25 10:45:34;;;;;;;1.40;1.20;;;20.90;81.80;;;;;;5006032;28;20125;-29
2023/09/25 10:48:01;;;;;;;2.42;1.20;;;20.70;74.40;;;;;;5007842;28;20046;-30
2023/09/25 10:50:28;;;;;;;1.85;1.20;;;21.30;82.50;;;;;;5007087;28;20555;-30
2023/09/25 10:52:55;;;;;;;3.13;1.42;;;;;;;;;;5000646;28;20445;-28
2023/09/25 10:55:21;;;;;;;1.67;1.40;;;20.90;72.20;;;;;;5009219;28;20045;-29
2023/09/25 10:57:48;;;;;;;1.98;1.25;;;21.00;81.90;;;;;;5008923;28;20132;-27
2023/09/25 11:00:18;;;;;;;1.45;1.10;;;20.40;70.10;;;;;;5012204;28;20124;-28
2023/09/25 11:02:44;;;;;;;1.52;1.20;;;20.80;81.90;;;;;;5012544;28;20121;-28
2023/09/25 11:05:11;;;;;;;1.33;1.10;;;20.70;70.50;;;;;;5012092;28;20125;-28
2023/09/25 11:07:38;;;;;;;1.50;1.17;;;20.30;81.20;;;;;;5012162;28;20129;-27
2023/09/25 11:10:05;;;;;;;1.30;1.10;;;21.80;82.10;;;;;;5012358;28;20145;-28
2023/09/25 11:12:32;;;;;;;1.90;1.10;;;20.70;81.90;;;;;;5012567;28;20587;-28
2023/09/25 11:14:59;;;;;;;3.47;1.30;;;;;;;;;;5012132;28;20103;-29
2023/09/25 11:17:27;;;;;;;2.22;1.25;;;20.80;71.30;;;;;;5012784;28;20060;-29
2023/09/25 11:19:54;;;;;;;1.80;1.30;;;21.70;82.10;;;;;;5012524;28;20128;-30
2023/09/25 11:22:21;;;;;;;3.92;1.20;;;20.50;81.50;;;;;;5008308;28;20148;-29
2023/09/25 11:24:54;;;;;;;2.92;1.20;;;21.00;65.90;;;;;;5012296;28;20138;-29
2023/09/25 11:27:21;;;;;;;2.45;1.17;;;21.30;82.30;;;;;;5012038;28;20137;-28
2023/09/25 11:29:50;;;;;;;2.83;1.10;;;21.20;82.00;;;;;;5011977;28;20120;-27
2023/09/25 11:32:17;;;;;;;1.92;1.20;;;20.40;81.90;;;;;;5012074;28;20124;-28
2023/09/25 11:34:47;;;;;;;2.00;1.20;;;20.80;65.90;;;;;;5011666;28;20053;-28
2023/09/25 11:37:22;;;;;;;2.05;1.30;;;20.80;65.90;;;;;;5011247;28;20057;-28
2023/09/25 11:39:49;;;;;;;2.67;1.23;;;20.50;81.90;;;;;;5010633;28;20129;-27
2023/09/25 11:42:16;;;;;;;2.58;1.20;;;;;;;;;;4997033;28;20464;-28
2023/09/25 11:44:43;;;;;;;3.05;1.10;;;;;;;;;;4993419;28;20133;-28
2023/09/25 11:47:11;;;;;;;2.40;1.30;;;;;;;;;;5010803;28;20131;-29
2023/09/25 11:49:37;;;;;;;1.67;1.00;;;20.70;82.20;;;;;;5006556;28;20054;-30
2023/09/25 11:52:06;;;;;;;1.30;1.10;;;20.80;65.90;;;;;;5011812;28;20550;-29
2023/09/25 11:54:33;;;;;;;1.90;1.00;;;;;;;;;;5011799;28;20178;-29
2023/09/25 11:57:00;;;;;;;2.40;1.10;;;;;;;;;;5012085;28;20128;-29
2023/09/25 11:59:27;;;;;;;2.25;1.63;;;;;;;;;;5011911;28;20074;-28
2023/09/25 12:01:54;;;;;;;2.85;1.10;;;19.90;81.40;;;;;;5011966;28;20137;-30
2023/09/25 12:04:21;;;;;;;2.08;1.20;;;21.00;81.90;;;;;;5010665;28;20472;-29
2023/09/25 12:06:51;;;;;;;2.95;1.10;;;20.00;81.90;;;;;;5012071;28;20132;-28
2023/09/25 12:09:19;;;;;;;2.38;1.30;;;20.60;81.70;;;;;;5011669;28;20070;-28
2023/09/25 12:11:46;;;;;;;1.80;1.20;;;21.50;82.30;;;;;;5001879;28;20078;-28
2023/09/25 12:14:14;;;;;;;3.47;1.27;;;20.00;71.00;;;;;;4992127;28;20058;-28
2023/09/25 12:16:42;;;;;;;2.00;1.20;;;;;;;;;;4992402;28;20077;-28
2023/09/25 12:19:08;;;;;;;3.60;1.58;;;20.90;82.10;;;;;;4997868;28;20387;-28
2023/09/25 12:21:35;;;;;;;3.00;1.85;;;;;;;;;;5011681;28;20088;-29
2023/09/25 12:24:05;;;;;;;3.88;1.40;;;20.40;71.00;;;;;;5012191;28;20144;-28
2023/09/25 12:26:33;;;;;;;2.55;1.30;;;21.00;79.00;;;;;;5011569;28;20408;-28
2023/09/25 12:29:00;;;;;;;3.22;1.40;;;21.50;82.30;;;;;;5011515;28;20057;-28
2023/09/25 12:31:26;;;;;;;6.93;1.60;;;20.80;82.10;;;;;;5011704;28;20125;-28
2023/09/25 12:33:54;;;;;;;4.18;1.80;;;;;;;;;;5012815;28;20144;-27
2023/09/25 12:36:21;;;;;;;2.92;1.60;;;21.30;82.40;;;;;;5014467;28;20048;-28
2023/09/25 12:38:48;;;;;;;2.67;1.50;;;;;;;;;;5015351;28;20132;-29
2023/09/25 12:41:15;;;;;;;4.80;1.45;;;20.70;82.00;;;;;;5015573;28;20128;-29
2023/09/25 12:43:43;;;;;;;2.95;1.70;;;20.50;82.20;;;;;;5015597;28;20306;-29
2023/09/25 12:46:09;;;;;;;2.55;1.50;;;20.30;82.10;;;;;;5015276;28;20128;-29
2023/09/25 12:48:36;;;;;;;5.90;1.85;;;20.80;70.70;;;;;;5015444;28;20133;-28
2023/09/25 12:51:03;;;;;;;2.78;1.40;;;21.30;82.10;;;;;;5015328;28;20152;-27
2023/09/25 12:53:29;;;;;;;4.38;1.42;;;21.00;82.20;;;;;;5014044;28;20074;-27
2023/09/25 12:55:57;;;;;;;2.83;1.63;;;20.80;66.20;;;;;;5015175;28;20149;-27
2023/09/25 12:58:24;;;;;;;4.85;2.20;;;21.90;82.60;;;;;;5014973;28;20140;-28
2023/09/25 13:00:52;;;;;;;3.30;1.52;;;21.00;70.40;;;;;;5015208;28;20553;-27
2023/09/25 13:03:19;;;;;;;7.25;1.70;;;20.30;81.60;;;;;;5014918;28;20049;-28
2023/09/25 13:05:46;;;;;;;3.20;1.40;;;20.90;82.40;;;;;;5014897;28;20132;-28
2023/09/25 13:08:13;;;;;;;3.25;1.67;;;;;;;;;;5014377;28;20141;-28